createdAt,value
2018-09-04T00:00:53.956Z,0
2018-09-04T00:01:53.906Z,0
2018-09-04T00:02:54.024Z,0
2018-09-04T00:03:53.956Z,0
2018-09-04T00:04:53.954Z,0
2018-09-04T00:05:53.960Z,0
2018-09-04T00:06:54.027Z,0
2018-09-04T00:07:53.960Z,0
2018-09-04T00:08:54.033Z,0
2018-09-04T00:09:53.957Z,0
2018-09-04T00:10:53.972Z,0
2018-09-04T00:11:54.029Z,0
2018-09-04T00:12:54.033Z,0
2018-09-04T00:13:54.030Z,0
2018-09-04T00:14:54.009Z,0
2018-09-04T00:15:53.963Z,0
2018-09-04T00:16:54.033Z,0
2018-09-04T00:17:53.968Z,0
2018-09-04T00:18:53.996Z,0
2018-09-04T00:19:54.034Z,0
2018-09-04T00:20:54.041Z,0
2018-09-04T00:21:54.037Z,0
2018-09-04T00:22:54.069Z,0
2018-09-04T00:23:53.977Z,0
2018-09-04T00:24:54.040Z,0
2018-09-04T00:25:53.977Z,0
2018-09-04T00:26:54.044Z,0
2018-09-04T00:27:53.972Z,0
2018-09-04T00:28:54.008Z,0
2018-09-04T00:29:54.045Z,0
2018-09-04T00:30:53.975Z,0
2018-09-04T00:31:53.981Z,0
2018-09-04T00:32:54.046Z,0
2018-09-04T00:33:53.981Z,0
2018-09-04T00:34:53.977Z,0
2018-09-04T00:35:53.980Z,0
2018-09-04T00:36:53.927Z,0
2018-09-04T00:37:54.048Z,0
2018-09-04T00:38:53.983Z,0
2018-09-04T00:39:54.047Z,0
2018-09-04T00:40:54.084Z,0
2018-09-04T00:41:53.936Z,0
2018-09-04T00:42:53.985Z,0
2018-09-04T00:43:54.051Z,0
2018-09-04T00:44:54.054Z,0
2018-09-04T00:45:53.983Z,0
2018-09-04T00:46:54.069Z,0
2018-09-04T00:47:53.990Z,0
2018-09-04T00:48:54.058Z,0
2018-09-04T00:49:54.057Z,0
2018-09-04T00:50:54.061Z,0
2018-09-04T00:51:54.060Z,0
2018-09-04T00:52:54.007Z,0
2018-09-04T00:53:53.995Z,0
2018-09-04T00:54:54.060Z,0
2018-09-04T00:55:53.995Z,0
2018-09-04T00:56:54.034Z,0
2018-09-04T00:57:53.997Z,0
2018-09-04T00:58:54.075Z,0
2018-09-04T00:59:53.926Z,0
2018-09-04T01:00:53.927Z,0
2018-09-04T01:01:53.931Z,0
2018-09-04T01:02:53.939Z,0
2018-09-04T01:03:53.954Z,0
2018-09-04T01:04:53.962Z,0
2018-09-04T01:05:54.029Z,0
2018-09-04T01:06:54.026Z,0
2018-09-04T01:07:53.960Z,0
2018-09-04T01:08:54.024Z,0
2018-09-04T01:09:54.064Z,0
2018-09-04T01:10:53.978Z,0
2018-09-04T01:11:54.086Z,0
2018-09-04T01:12:53.981Z,0
2018-09-04T01:13:53.981Z,0
2018-09-04T01:14:54.063Z,0
2018-09-04T01:15:53.981Z,0
2018-09-04T01:16:53.998Z,0
2018-09-04T01:17:54.075Z,0
2018-09-04T01:18:53.981Z,0
2018-09-04T01:19:53.996Z,0
2018-09-04T01:20:54.020Z,0
2018-09-04T01:21:54.031Z,0
2018-09-04T01:22:54.072Z,0
2018-09-04T01:23:54.066Z,0
2018-09-04T01:24:54.075Z,0
2018-09-04T01:25:53.984Z,0
2018-09-04T01:26:54.069Z,0
2018-09-04T01:27:54.111Z,0
2018-09-04T01:28:53.985Z,0
2018-09-04T01:29:54.006Z,0
2018-09-04T01:30:53.990Z,0
2018-09-04T01:31:53.990Z,0
2018-09-04T01:32:53.992Z,0
2018-09-04T01:33:54.000Z,0
2018-09-04T01:34:53.998Z,0
2018-09-04T01:35:53.996Z,0
2018-09-04T01:36:53.996Z,0
2018-09-04T01:37:53.997Z,0
2018-09-04T01:38:53.995Z,0
2018-09-04T01:39:54.099Z,0
2018-09-04T01:40:54.024Z,0
2018-09-04T01:41:54.092Z,0
2018-09-04T01:42:54.094Z,0
2018-09-04T01:43:54.095Z,0
2018-09-04T01:44:54.030Z,0
2018-09-04T01:45:54.028Z,0
2018-09-04T01:46:54.097Z,0
2018-09-04T01:47:54.040Z,0
2018-09-04T01:48:54.099Z,0
2018-09-04T01:49:54.094Z,0
2018-09-04T01:50:54.005Z,0
2018-09-04T01:51:54.095Z,0
2018-09-04T01:52:54.013Z,0
2018-09-04T01:53:54.159Z,0
2018-09-04T01:54:54.093Z,0
2018-09-04T01:55:54.005Z,0
2018-09-04T01:56:54.094Z,0
2018-09-04T01:57:54.104Z,0
2018-09-04T01:58:54.009Z,0
2018-09-04T01:59:54.106Z,0
2018-09-04T02:00:54.044Z,0
2018-09-04T02:01:53.992Z,0
2018-09-04T02:02:54.038Z,0
2018-09-04T02:03:54.065Z,0
2018-09-04T02:04:58.508Z,0
2018-09-04T02:05:54.110Z,0
2018-09-04T02:06:54.062Z,0
2018-09-04T02:07:54.112Z,0
2018-09-04T02:08:54.112Z,0
2018-09-04T02:09:54.019Z,0
2018-09-04T02:10:54.101Z,0
2018-09-04T02:11:54.112Z,0
2018-09-04T02:12:54.020Z,0
2018-09-04T02:13:54.026Z,0
2018-09-04T02:14:54.109Z,0
2018-09-04T02:15:54.105Z,0
2018-09-04T02:16:54.111Z,0
2018-09-04T02:17:54.111Z,0
2018-09-04T02:18:54.027Z,0
2018-09-04T02:19:54.054Z,0
2018-09-04T02:20:54.046Z,0
2018-09-04T02:21:53.950Z,0
2018-09-04T02:22:53.981Z,0
2018-09-04T02:23:54.003Z,0
2018-09-04T02:24:54.066Z,0
2018-09-04T02:25:54.052Z,0
2018-09-04T02:26:53.946Z,0
2018-09-04T02:27:54.055Z,0
2018-09-04T02:28:54.031Z,0
2018-09-04T02:29:54.071Z,0
2018-09-04T02:30:54.127Z,0
2018-09-04T02:31:54.137Z,0
2018-09-04T02:32:54.080Z,0
2018-09-04T02:33:54.067Z,0
2018-09-04T02:34:54.106Z,0
2018-09-04T02:35:54.131Z,0
2018-09-04T02:36:54.098Z,0
2018-09-04T02:37:54.114Z,0
2018-09-04T02:38:54.080Z,0
2018-09-04T02:39:54.101Z,0
2018-09-04T02:40:54.070Z,0
2018-09-04T02:41:54.141Z,0
2018-09-04T02:42:54.082Z,0
2018-09-04T02:43:54.138Z,0
2018-09-04T02:44:54.140Z,0
2018-09-04T02:45:54.140Z,0
2018-09-04T02:46:54.074Z,0
2018-09-04T02:47:54.141Z,0
2018-09-04T02:48:54.072Z,0
2018-09-04T02:49:54.074Z,0
2018-09-04T02:50:54.080Z,0
2018-09-04T02:51:54.079Z,0
2018-09-04T02:52:54.081Z,0
2018-09-04T02:53:54.137Z,0
2018-09-04T02:54:54.042Z,0
2018-09-04T02:55:54.079Z,0
2018-09-04T02:56:54.146Z,0
2018-09-04T02:57:54.147Z,0
2018-09-04T02:58:54.082Z,0
2018-09-04T02:59:54.092Z,0
2018-09-04T03:00:54.083Z,0
2018-09-04T03:01:54.150Z,0
2018-09-04T03:02:54.086Z,0
2018-09-04T03:03:54.155Z,0
2018-09-04T03:04:54.084Z,0
2018-09-04T03:05:54.097Z,0
2018-09-04T03:06:54.152Z,0
2018-09-04T03:07:54.175Z,0
2018-09-04T03:08:54.163Z,0
2018-09-04T03:09:54.089Z,0
2018-09-04T03:10:54.167Z,0
2018-09-04T03:11:54.111Z,0
2018-09-04T03:12:54.090Z,0
2018-09-04T03:13:54.275Z,0
2018-09-04T03:14:54.161Z,0
2018-09-04T03:15:54.043Z,0
2018-09-04T03:16:54.095Z,0
2018-09-04T03:17:54.161Z,0
2018-09-04T03:18:54.127Z,0
2018-09-04T03:19:54.096Z,0
2018-09-04T03:20:54.163Z,0
2018-09-04T03:21:54.095Z,0
2018-09-04T03:22:54.160Z,0
2018-09-04T03:23:54.166Z,0
2018-09-04T03:24:54.100Z,0
2018-09-04T03:25:54.168Z,0
2018-09-04T03:26:54.104Z,0
2018-09-04T03:27:54.168Z,0
2018-09-04T03:28:54.104Z,0
2018-09-04T03:29:54.168Z,0
2018-09-04T03:30:54.168Z,0
2018-09-04T03:31:54.188Z,0
2018-09-04T03:32:54.173Z,0
2018-09-04T03:33:54.110Z,0
2018-09-04T03:34:54.174Z,0
2018-09-04T03:35:54.111Z,0
2018-09-04T03:36:54.187Z,0
2018-09-04T03:37:54.115Z,0
2018-09-04T03:38:54.108Z,0
2018-09-04T03:39:54.106Z,0
2018-09-04T03:40:54.177Z,0
2018-09-04T03:41:54.185Z,0
2018-09-04T03:42:54.108Z,0
2018-09-04T03:43:54.070Z,0
2018-09-04T03:44:54.116Z,0
2018-09-04T03:45:54.118Z,0
2018-09-04T03:46:54.185Z,0
2018-09-04T03:47:54.139Z,0
2018-09-04T03:48:54.183Z,0
2018-09-04T03:49:54.120Z,0
2018-09-04T03:50:54.185Z,0
2018-09-04T03:51:54.185Z,0
2018-09-04T03:52:54.122Z,0
2018-09-04T03:53:54.121Z,0
2018-09-04T03:54:54.119Z,0
2018-09-04T03:55:54.188Z,0
2018-09-04T03:56:54.120Z,0
2018-09-04T03:57:54.194Z,0
2018-09-04T03:58:54.190Z,0
2018-09-04T03:59:54.181Z,0
2018-09-04T04:00:54.095Z,0
2018-09-04T04:01:54.093Z,0
2018-09-04T04:02:54.133Z,0
2018-09-04T04:03:54.183Z,0
2018-09-04T04:04:54.183Z,0
2018-09-04T04:05:54.184Z,0
2018-09-04T04:06:54.185Z,0
2018-09-04T04:07:54.099Z,0
2018-09-04T04:08:54.138Z,0
2018-09-04T04:09:54.132Z,0
2018-09-04T04:10:54.199Z,0
2018-09-04T04:11:54.213Z,0
2018-09-04T04:12:54.141Z,0
2018-09-04T04:13:54.200Z,0
2018-09-04T04:14:54.203Z,0
2018-09-04T04:15:54.139Z,0
2018-09-04T04:16:54.204Z,0
2018-09-04T04:17:54.133Z,0
2018-09-04T04:18:54.140Z,0
2018-09-04T04:19:54.133Z,0
2018-09-04T04:20:54.152Z,0
2018-09-04T04:21:54.206Z,0
2018-09-04T04:22:54.142Z,0
2018-09-04T04:23:54.276Z,0
2018-09-04T04:24:54.207Z,0
2018-09-04T04:25:54.213Z,0
2018-09-04T04:26:54.146Z,0
2018-09-04T04:27:54.096Z,0
2018-09-04T04:28:54.215Z,0
2018-09-04T04:29:54.027Z,0
2018-09-04T04:30:54.096Z,0
2018-09-04T04:31:54.071Z,0
2018-09-04T04:32:54.130Z,0
2018-09-04T04:33:54.036Z,5
2018-09-04T04:34:54.035Z,5
2018-09-04T04:35:54.120Z,5
2018-09-04T04:36:54.087Z,5
2018-09-04T04:37:54.109Z,5
2018-09-04T04:38:54.077Z,5
2018-09-04T04:39:54.195Z,11
2018-09-04T04:40:54.208Z,11
2018-09-04T04:41:54.117Z,11
2018-09-04T04:42:54.127Z,11
2018-09-04T04:43:54.118Z,11
2018-09-04T04:44:54.161Z,11
2018-09-04T04:45:54.122Z,16
2018-09-04T04:46:54.215Z,16
2018-09-04T04:47:54.236Z,16
2018-09-04T04:48:54.157Z,16
2018-09-04T04:49:54.212Z,22
2018-09-04T04:50:54.219Z,22
2018-09-04T04:51:54.125Z,28
2018-09-04T04:52:54.220Z,28
2018-09-04T04:53:54.219Z,33
2018-09-04T04:54:54.184Z,33
2018-09-04T04:55:54.218Z,39
2018-09-04T04:56:54.132Z,39
2018-09-04T04:57:54.220Z,45
2018-09-04T04:58:54.144Z,50
2018-09-04T04:59:54.162Z,56
2018-09-04T05:00:54.232Z,56
2018-09-04T05:01:54.185Z,56
2018-09-04T05:02:54.246Z,67
2018-09-04T05:03:54.247Z,67
2018-09-04T05:04:54.171Z,73
2018-09-04T05:05:54.264Z,73
2018-09-04T05:06:54.237Z,78
2018-09-04T05:07:54.166Z,84
2018-09-04T05:08:54.246Z,95
2018-09-04T05:09:54.250Z,106
2018-09-04T05:10:54.260Z,118
2018-09-04T05:11:54.274Z,135
2018-09-04T05:12:54.167Z,140
2018-09-04T05:13:54.240Z,151
2018-09-04T05:14:54.245Z,157
2018-09-04T05:15:54.182Z,174
2018-09-04T05:16:54.170Z,180
2018-09-04T05:17:54.243Z,202
2018-09-04T05:18:54.170Z,219
2018-09-04T05:19:54.160Z,230
2018-09-04T05:20:54.236Z,230
2018-09-04T05:21:54.244Z,230
2018-09-04T05:22:54.157Z,230
2018-09-04T05:23:54.110Z,230
2018-09-04T05:24:54.234Z,236
2018-09-04T05:25:54.154Z,230
2018-09-04T05:26:54.233Z,230
2018-09-04T05:27:54.152Z,230
2018-09-04T05:28:54.153Z,236
2018-09-04T05:29:54.259Z,241
2018-09-04T05:30:54.178Z,253
2018-09-04T05:31:54.255Z,258
2018-09-04T05:32:54.185Z,270
2018-09-04T05:33:54.256Z,275
2018-09-04T05:34:54.256Z,275
2018-09-04T05:35:54.257Z,281
2018-09-04T05:36:54.315Z,281
2018-09-04T05:37:54.189Z,281
2018-09-04T05:38:54.259Z,286
2018-09-04T05:39:54.255Z,286
2018-09-04T05:40:54.185Z,292
2018-09-04T05:41:54.155Z,286
2018-09-04T05:42:54.141Z,286
2018-09-04T05:43:54.234Z,286
2018-09-04T05:44:54.237Z,292
2018-09-04T05:45:54.143Z,286
2018-09-04T05:46:54.124Z,292
2018-09-04T05:47:54.126Z,298
2018-09-04T05:48:54.230Z,298
2018-09-04T05:49:54.200Z,303
2018-09-04T05:50:54.213Z,303
2018-09-04T05:51:54.280Z,303
2018-09-04T05:52:54.167Z,309
2018-09-04T05:53:54.285Z,309
2018-09-04T05:54:54.238Z,315
2018-09-04T05:55:54.123Z,315
2018-09-04T05:56:54.120Z,320
2018-09-04T05:57:54.169Z,326
2018-09-04T05:58:54.168Z,331
2018-09-04T05:59:54.118Z,331
2018-09-04T06:00:54.159Z,331
2018-09-04T06:01:54.245Z,331
2018-09-04T06:02:54.126Z,320
2018-09-04T06:03:54.170Z,326
2018-09-04T06:04:54.171Z,320
2018-09-04T06:05:54.180Z,326
2018-09-04T06:06:54.171Z,326
2018-09-04T06:07:54.126Z,320
2018-09-04T06:08:54.128Z,315
2018-09-04T06:09:54.128Z,315
2018-09-04T06:10:54.178Z,315
2018-09-04T06:11:54.230Z,315
2018-09-04T06:12:54.133Z,320
2018-09-04T06:13:54.232Z,326
2018-09-04T06:14:54.134Z,337
2018-09-04T06:15:54.132Z,348
2018-09-04T06:16:54.137Z,365
2018-09-04T06:17:54.186Z,376
2018-09-04T06:18:54.142Z,388
2018-09-04T06:19:54.250Z,388
2018-09-04T06:20:54.186Z,388
2018-09-04T06:21:54.173Z,405
2018-09-04T06:22:54.258Z,433
2018-09-04T06:23:54.194Z,466
2018-09-04T06:24:54.194Z,495
2018-09-04T06:25:54.276Z,523
2018-09-04T06:26:54.256Z,545
2018-09-04T06:27:54.281Z,556
2018-09-04T06:28:54.280Z,545
2018-09-04T06:29:54.230Z,551
2018-09-04T06:30:54.287Z,545
2018-09-04T06:31:54.233Z,545
2018-09-04T06:32:54.182Z,511
2018-09-04T06:33:54.313Z,523
2018-09-04T06:34:54.318Z,523
2018-09-04T06:35:54.291Z,523
2018-09-04T06:36:54.199Z,540
2018-09-04T06:37:54.293Z,540
2018-09-04T06:38:54.181Z,556
2018-09-04T06:39:54.233Z,573
2018-09-04T06:40:54.305Z,585
2018-09-04T06:41:54.231Z,585
2018-09-04T06:42:54.310Z,613
2018-09-04T06:43:54.235Z,618
2018-09-04T06:44:54.239Z,630
2018-09-04T06:45:54.234Z,652
2018-09-04T06:46:54.306Z,686
2018-09-04T06:47:54.240Z,708
2018-09-04T06:48:54.326Z,742
2018-09-04T06:49:54.269Z,753
2018-09-04T06:50:54.206Z,765
2018-09-04T06:51:54.214Z,759
2018-09-04T06:52:54.322Z,759
2018-09-04T06:53:54.258Z,753
2018-09-04T06:54:54.213Z,742
2018-09-04T06:55:54.288Z,703
2018-09-04T06:56:54.214Z,663
2018-09-04T06:57:54.288Z,669
2018-09-04T06:58:54.259Z,703
2018-09-04T06:59:54.168Z,691
2018-09-04T07:00:54.249Z,635
2018-09-04T07:01:54.318Z,607
2018-09-04T07:02:54.248Z,652
2018-09-04T07:03:54.254Z,691
2018-09-04T07:04:54.200Z,703
2018-09-04T07:05:54.364Z,691
2018-09-04T07:06:54.321Z,630
2018-09-04T07:07:54.250Z,635
2018-09-04T07:08:54.199Z,658
2018-09-04T07:09:54.253Z,720
2018-09-04T07:10:54.295Z,759
2018-09-04T07:11:54.325Z,770
2018-09-04T07:12:54.259Z,793
2018-09-04T07:13:54.324Z,826
2018-09-04T07:14:54.385Z,838
2018-09-04T07:15:54.328Z,860
2018-09-04T07:16:54.296Z,883
2018-09-04T07:17:54.330Z,888
2018-09-04T07:18:54.331Z,928
2018-09-04T07:19:54.334Z,967
2018-09-04T07:20:54.260Z,990
2018-09-04T07:21:54.236Z,1001
2018-09-04T07:22:54.301Z,973
2018-09-04T07:23:54.260Z,1001
2018-09-04T07:24:54.303Z,990
2018-09-04T07:25:54.288Z,1006
2018-09-04T07:26:54.325Z,1023
2018-09-04T07:27:54.236Z,1040
2018-09-04T07:28:54.286Z,1023
2018-09-04T07:29:54.287Z,1012
2018-09-04T07:30:54.300Z,995
2018-09-04T07:31:54.205Z,956
2018-09-04T07:32:54.300Z,855
2018-09-04T07:33:54.224Z,821
2018-09-04T07:34:54.222Z,866
2018-09-04T07:35:54.203Z,832
2018-09-04T07:36:54.203Z,815
2018-09-04T07:37:54.271Z,866
2018-09-04T07:38:54.228Z,916
2018-09-04T07:39:54.305Z,849
2018-09-04T07:40:54.343Z,871
2018-09-04T07:41:54.284Z,961
2018-09-04T07:42:54.279Z,1012
2018-09-04T07:43:54.397Z,1063
2018-09-04T07:44:54.507Z,1018
2018-09-04T07:45:54.361Z,1063
2018-09-04T07:46:54.273Z,1068
2018-09-04T07:47:54.350Z,1023
2018-09-04T07:48:54.275Z,990
2018-09-04T07:49:54.353Z,1068
2018-09-04T07:50:54.229Z,950
2018-09-04T07:51:54.217Z,950
2018-09-04T07:52:54.249Z,984
2018-09-04T07:53:54.380Z,1035
2018-09-04T07:54:54.256Z,1063
2018-09-04T07:55:54.255Z,1136
2018-09-04T07:56:54.254Z,1282
2018-09-04T07:57:54.303Z,1215
2018-09-04T07:58:54.264Z,1361
2018-09-04T07:59:54.348Z,1670
2018-09-04T08:00:54.393Z,1833
2018-09-04T08:01:54.248Z,1867
2018-09-04T08:02:54.364Z,2238
2018-09-04T08:03:54.297Z,2373
2018-09-04T08:04:54.360Z,2508
2018-09-04T08:05:54.365Z,2536
2018-09-04T08:06:54.292Z,2508
2018-09-04T08:07:54.363Z,2677
2018-09-04T08:08:54.365Z,2638
2018-09-04T08:09:54.440Z,2587
2018-09-04T08:10:54.323Z,2604
2018-09-04T08:11:54.331Z,2446
2018-09-04T08:12:54.370Z,2424
2018-09-04T08:13:54.367Z,2250
2018-09-04T08:14:54.295Z,2452
2018-09-04T08:15:54.307Z,2469
2018-09-04T08:16:54.320Z,2677
2018-09-04T08:17:54.373Z,2441
2018-09-04T08:18:54.331Z,2655
2018-09-04T08:19:54.375Z,2722
2018-09-04T08:20:54.474Z,2671
2018-09-04T08:21:54.332Z,2700
2018-09-04T08:22:54.326Z,2745
2018-09-04T08:23:54.337Z,2610
2018-09-04T08:24:54.243Z,2593
2018-09-04T08:25:54.338Z,2300
2018-09-04T08:26:54.236Z,2351
2018-09-04T08:27:54.307Z,2520
2018-09-04T08:28:54.310Z,2351
2018-09-04T08:29:54.340Z,2120
2018-09-04T08:30:54.305Z,2008
2018-09-04T08:31:54.333Z,2812
2018-09-04T08:32:54.325Z,2733
2018-09-04T08:33:54.268Z,2576
2018-09-04T08:34:54.267Z,2604
2018-09-04T08:35:54.289Z,2671
2018-09-04T08:36:54.322Z,2716
2018-09-04T08:37:54.271Z,2722
2018-09-04T08:38:54.368Z,2475
2018-09-04T08:39:54.410Z,2266
2018-09-04T08:40:54.376Z,2418
2018-09-04T08:41:54.328Z,2896
2018-09-04T08:42:54.324Z,2964
2018-09-04T08:43:54.297Z,3020
2018-09-04T08:44:54.294Z,3105
2018-09-04T08:45:54.296Z,3127
2018-09-04T08:46:54.362Z,3099
2018-09-04T08:47:54.390Z,3093
2018-09-04T08:48:54.273Z,2835
2018-09-04T08:49:54.275Z,2610
2018-09-04T08:50:54.294Z,2373
2018-09-04T08:51:54.371Z,2188
2018-09-04T08:52:54.285Z,2115
2018-09-04T08:53:54.281Z,2165
2018-09-04T08:54:54.330Z,2233
2018-09-04T08:55:54.382Z,2188
2018-09-04T08:56:54.360Z,2317
2018-09-04T08:57:54.284Z,2390
2018-09-04T08:58:54.285Z,2407
2018-09-04T08:59:54.260Z,2401
2018-09-04T09:00:54.370Z,2328
2018-09-04T09:01:54.300Z,2424
2018-09-04T09:02:54.393Z,2570
2018-09-04T09:03:54.415Z,2750
2018-09-04T09:04:54.373Z,2998
2018-09-04T09:05:54.389Z,3178
2018-09-04T09:06:54.464Z,3155
2018-09-04T09:07:54.306Z,2981
2018-09-04T09:08:54.396Z,2970
2018-09-04T09:09:54.351Z,3054
2018-09-04T09:10:54.344Z,3088
2018-09-04T09:11:54.448Z,3144
2018-09-04T09:12:54.335Z,3127
2018-09-04T09:13:54.337Z,3054
2018-09-04T09:14:54.339Z,2941
2018-09-04T09:15:54.414Z,2621
2018-09-04T09:16:54.413Z,2334
2018-09-04T09:17:54.342Z,2531
2018-09-04T09:18:54.414Z,2716
2018-09-04T09:19:54.342Z,2806
2018-09-04T09:20:54.293Z,2885
2018-09-04T09:21:54.322Z,3060
2018-09-04T09:22:54.396Z,2975
2018-09-04T09:23:54.354Z,3015
2018-09-04T09:24:54.402Z,3015
2018-09-04T09:25:54.275Z,3009
2018-09-04T09:26:54.324Z,3076
2018-09-04T09:27:54.327Z,3054
2018-09-04T09:28:54.427Z,3071
2018-09-04T09:29:54.387Z,3369
2018-09-04T09:30:54.303Z,3600
2018-09-04T09:31:54.379Z,3526
2018-09-04T09:32:54.367Z,3189
2018-09-04T09:33:54.376Z,3127
2018-09-04T09:34:54.416Z,3110
2018-09-04T09:35:54.391Z,2885
2018-09-04T09:36:54.347Z,2711
2018-09-04T09:37:54.328Z,2925
2018-09-04T09:38:54.309Z,2964
2018-09-04T09:39:54.452Z,3223
2018-09-04T09:40:54.390Z,3166
2018-09-04T09:41:54.391Z,3088
2018-09-04T09:42:54.325Z,3189
2018-09-04T09:43:54.288Z,3099
2018-09-04T09:44:54.317Z,3245
2018-09-04T09:45:54.326Z,3223
2018-09-04T09:46:54.394Z,3313
2018-09-04T09:47:54.296Z,3420
2018-09-04T09:48:54.362Z,3673
2018-09-04T09:49:54.298Z,3628
2018-09-04T09:50:54.287Z,3751
2018-09-04T09:51:54.287Z,3718
2018-09-04T09:52:54.450Z,3706
2018-09-04T09:53:54.310Z,3718
2018-09-04T09:54:54.338Z,3408
2018-09-04T09:55:54.385Z,3751
2018-09-04T09:56:54.341Z,3729
2018-09-04T09:57:54.291Z,3802
2018-09-04T09:58:54.339Z,3780
2018-09-04T09:59:54.309Z,3678
2018-09-04T10:00:54.467Z,3875
2018-09-04T10:01:54.381Z,3661
2018-09-04T10:02:54.446Z,3656
2018-09-04T10:03:54.400Z,3915
2018-09-04T10:04:54.447Z,3965
2018-09-04T10:05:54.411Z,3577
2018-09-04T10:06:54.392Z,4078
2018-09-04T10:07:54.676Z,3999
2018-09-04T10:08:54.381Z,3937
2018-09-04T10:09:54.395Z,3813
2018-09-04T10:10:54.337Z,3841
2018-09-04T10:11:54.323Z,3740
2018-09-04T10:12:54.377Z,3718
2018-09-04T10:13:54.414Z,3757
2018-09-04T10:14:54.311Z,3774
2018-09-04T10:15:54.314Z,4010
2018-09-04T10:16:54.417Z,4089
2018-09-04T10:17:54.416Z,3954
2018-09-04T10:18:54.318Z,4106
2018-09-04T10:19:54.383Z,4185
2018-09-04T10:20:54.353Z,4151
2018-09-04T10:21:54.320Z,3943
2018-09-04T10:22:54.317Z,3386
2018-09-04T10:23:54.322Z,2902
2018-09-04T10:24:54.413Z,2795
2018-09-04T10:25:54.350Z,3166
2018-09-04T10:26:54.442Z,3290
2018-09-04T10:27:54.416Z,2345
2018-09-04T10:28:54.416Z,2356
2018-09-04T10:29:54.384Z,2851
2018-09-04T10:30:54.400Z,3217
2018-09-04T10:31:54.397Z,3526
2018-09-04T10:32:54.407Z,3813
2018-09-04T10:33:54.401Z,3346
2018-09-04T10:34:54.468Z,3369
2018-09-04T10:35:54.469Z,3020
2018-09-04T10:36:54.397Z,3043
2018-09-04T10:37:54.471Z,2801
2018-09-04T10:38:54.400Z,2801
2018-09-04T10:39:54.472Z,2947
2018-09-04T10:40:54.333Z,3352
2018-09-04T10:41:54.434Z,3127
2018-09-04T10:42:54.425Z,3211
2018-09-04T10:43:54.365Z,3313
2018-09-04T10:44:54.359Z,2970
2018-09-04T10:45:54.368Z,2835
2018-09-04T10:46:54.434Z,2919
2018-09-04T10:47:54.461Z,2992
2018-09-04T10:48:54.437Z,3352
2018-09-04T10:49:54.433Z,2801
2018-09-04T10:50:54.414Z,3048
2018-09-04T10:51:54.463Z,3138
2018-09-04T10:52:54.409Z,3324
2018-09-04T10:53:54.442Z,3414
2018-09-04T10:54:54.462Z,3667
2018-09-04T10:55:54.375Z,3808
2018-09-04T10:56:54.415Z,3937
2018-09-04T10:57:54.564Z,4010
2018-09-04T10:58:54.356Z,3881
2018-09-04T10:59:54.342Z,3813
2018-09-04T11:00:54.414Z,3960
2018-09-04T11:01:54.486Z,3931
2018-09-04T11:02:54.429Z,3780
2018-09-04T11:03:54.498Z,3763
2018-09-04T11:04:54.421Z,3892
2018-09-04T11:05:54.590Z,3976
2018-09-04T11:06:54.419Z,4083
2018-09-04T11:07:54.493Z,4089
2018-09-04T11:08:54.451Z,4100
2018-09-04T11:09:54.551Z,4128
2018-09-04T11:10:54.350Z,4123
2018-09-04T11:11:54.352Z,4134
2018-09-04T11:12:54.458Z,4078
2018-09-04T11:13:54.393Z,3999
2018-09-04T11:14:54.460Z,4072
2018-09-04T11:15:54.368Z,4050
2018-09-04T11:16:54.400Z,4100
2018-09-04T11:17:54.378Z,4291
2018-09-04T11:18:54.442Z,4314
2018-09-04T11:19:54.442Z,4241
2018-09-04T11:20:54.499Z,4314
2018-09-04T11:21:54.432Z,4387
2018-09-04T11:22:54.430Z,4404
2018-09-04T11:23:54.503Z,4348
2018-09-04T11:24:54.430Z,4291
2018-09-04T11:25:54.504Z,4303
2018-09-04T11:26:54.434Z,4089
2018-09-04T11:27:54.472Z,4151
2018-09-04T11:28:54.510Z,4365
2018-09-04T11:29:54.436Z,4381
2018-09-04T11:30:54.437Z,4438
2018-09-04T11:31:54.511Z,4072
2018-09-04T11:32:54.436Z,4505
2018-09-04T11:33:54.509Z,4488
2018-09-04T11:34:54.433Z,4398
2018-09-04T11:35:54.514Z,4387
2018-09-04T11:36:54.441Z,4398
2018-09-04T11:37:54.517Z,4426
2018-09-04T11:38:54.438Z,4460
2018-09-04T11:39:54.516Z,4483
2018-09-04T11:40:54.543Z,4556
2018-09-04T11:41:54.516Z,4505
2018-09-04T11:42:54.450Z,4522
2018-09-04T11:43:54.516Z,4471
2018-09-04T11:44:54.549Z,4432
2018-09-04T11:45:54.447Z,4404
2018-09-04T11:46:54.476Z,4376
2018-09-04T11:47:54.519Z,4258
2018-09-04T11:48:54.468Z,4140
2018-09-04T11:49:54.522Z,3937
2018-09-04T11:50:54.389Z,3780
2018-09-04T11:51:54.415Z,3611
2018-09-04T11:52:54.376Z,3003
2018-09-04T11:53:54.479Z,1822
2018-09-04T11:54:54.479Z,1996
2018-09-04T11:55:54.382Z,3217
2018-09-04T11:56:54.435Z,3476
2018-09-04T11:57:54.383Z,1468
2018-09-04T11:58:54.479Z,1361
2018-09-04T11:59:54.452Z,1372
2018-09-04T12:00:54.408Z,1355
2018-09-04T12:01:54.380Z,1248
2018-09-04T12:02:54.481Z,1198
2018-09-04T12:03:54.419Z,1203
2018-09-04T12:04:54.487Z,1209
2018-09-04T12:05:54.555Z,1175
2018-09-04T12:06:54.439Z,1158
2018-09-04T12:07:54.518Z,1130
2018-09-04T12:08:54.474Z,1108
2018-09-04T12:09:54.439Z,1080
2018-09-04T12:10:54.459Z,1063
2018-09-04T12:11:54.540Z,1102
2018-09-04T12:12:54.564Z,1113
2018-09-04T12:13:54.465Z,1141
2018-09-04T12:14:54.539Z,1181
2018-09-04T12:15:54.468Z,1321
2018-09-04T12:16:54.543Z,1828
2018-09-04T12:17:54.474Z,1805
2018-09-04T12:18:54.574Z,1355
2018-09-04T12:19:54.476Z,1310
2018-09-04T12:20:54.658Z,1513
2018-09-04T12:21:54.469Z,2053
2018-09-04T12:22:54.546Z,1440
2018-09-04T12:23:54.479Z,3183
2018-09-04T12:24:54.593Z,2767
2018-09-04T12:25:54.551Z,2503
2018-09-04T12:26:54.476Z,2559
2018-09-04T12:27:54.491Z,1451
2018-09-04T12:28:54.551Z,1423
2018-09-04T12:29:54.481Z,1468
2018-09-04T12:30:54.478Z,1485
2018-09-04T12:31:54.575Z,1485
2018-09-04T12:32:54.480Z,1456
2018-09-04T12:33:54.479Z,1423
2018-09-04T12:34:54.552Z,1445
2018-09-04T12:35:54.489Z,2109
2018-09-04T12:36:54.551Z,2891
2018-09-04T12:37:54.477Z,2970
2018-09-04T12:38:54.556Z,2626
2018-09-04T12:39:54.488Z,2452
2018-09-04T12:40:54.486Z,2295
2018-09-04T12:41:54.516Z,2160
2018-09-04T12:42:54.538Z,2103
2018-09-04T12:43:54.488Z,1248
2018-09-04T12:44:54.579Z,1006
2018-09-04T12:45:54.443Z,1046
2018-09-04T12:46:54.530Z,1018
2018-09-04T12:47:54.442Z,1018
2018-09-04T12:48:54.438Z,1096
2018-09-04T12:49:54.534Z,1018
2018-09-04T12:50:54.462Z,1023
2018-09-04T12:51:54.562Z,1046
2018-09-04T12:52:54.492Z,1046
2018-09-04T12:53:54.566Z,1029
2018-09-04T12:54:54.565Z,1006
2018-09-04T12:55:54.494Z,1012
2018-09-04T12:56:54.482Z,1029
2018-09-04T12:57:54.481Z,1063
2018-09-04T12:58:54.452Z,1125
2018-09-04T12:59:54.514Z,1181
2018-09-04T13:00:54.571Z,1248
2018-09-04T13:01:54.572Z,1338
2018-09-04T13:02:54.503Z,1428
2018-09-04T13:03:54.573Z,1507
2018-09-04T13:04:54.499Z,1591
2018-09-04T13:05:54.575Z,1738
2018-09-04T13:06:54.500Z,2722
2018-09-04T13:07:54.576Z,2846
2018-09-04T13:08:54.627Z,3099
2018-09-04T13:09:54.505Z,3448
2018-09-04T13:10:54.578Z,3504
2018-09-04T13:11:54.456Z,2238
2018-09-04T13:12:54.474Z,2328
2018-09-04T13:13:54.482Z,3121
2018-09-04T13:14:54.542Z,3352
2018-09-04T13:15:54.459Z,3571
2018-09-04T13:16:54.462Z,3577
2018-09-04T13:17:54.482Z,3588
2018-09-04T13:18:54.459Z,3515
2018-09-04T13:19:54.510Z,3380
2018-09-04T13:20:54.547Z,2851
2018-09-04T13:21:54.572Z,1918
2018-09-04T13:22:54.555Z,1895
2018-09-04T13:23:54.488Z,1991
2018-09-04T13:24:54.490Z,3110
2018-09-04T13:25:54.564Z,3172
2018-09-04T13:26:54.511Z,3133
2018-09-04T13:27:54.519Z,3082
2018-09-04T13:28:54.519Z,2992
2018-09-04T13:29:54.485Z,2941
2018-09-04T13:30:54.578Z,2936
2018-09-04T13:31:54.513Z,2970
2018-09-04T13:32:54.592Z,2947
2018-09-04T13:33:54.619Z,2576
2018-09-04T13:34:54.595Z,2306
2018-09-04T13:35:54.580Z,2306
2018-09-04T13:36:54.595Z,2610
2018-09-04T13:37:54.519Z,2559
2018-09-04T13:38:54.599Z,2210
2018-09-04T13:39:54.525Z,1063
2018-09-04T13:40:54.600Z,888
2018-09-04T13:41:54.601Z,849
2018-09-04T13:42:54.605Z,826
2018-09-04T13:43:54.592Z,815
2018-09-04T13:44:54.530Z,810
2018-09-04T13:45:54.601Z,815
2018-09-04T13:46:54.531Z,832
2018-09-04T13:47:54.604Z,843
2018-09-04T13:48:54.623Z,855
2018-09-04T13:49:54.537Z,860
2018-09-04T13:50:54.605Z,877
2018-09-04T13:51:54.534Z,871
2018-09-04T13:52:54.608Z,860
2018-09-04T13:53:54.533Z,855